M I D A S
Marine Information and Data Acquisition System
Tripno 1531 of the Zeeleeuw from 2008-08-04 08:20:09 to 2008-08-04 14:43:14
Back to CruiseResearch ActivitiesStationsMapUnderway DataData graphs

EquipmentUnitsComment
TimeDGPSUTC
LatitudeDGPSDM.mWGS84
LongitudeDGPSDM.mWGS84
TemperatureSBE03/SBE38deg celciusITS90
ConductivitySBE21S/mITS90
SalinitySBE21 Practical Salinity Units
ChlorophylAChelsea fluorimeterg/lCalibrated in Aceton
Missing or incorrect values are displayed as -999
Sea surface data collected by the RV Zeeleeuw from 2008-08-04 08:22:21 to 2008-08-04 14:46:13
Time Latitude Longitude Temperature Conductivity Salinity ChlorophylA
2008-08-04 08:23:26 51°13.64 2°55.992 21.5713 2.263061 15.252388 -1.453281
2008-08-04 08:24:26 51°13.668 2°55.891 21.5927 2.263164 15.25426 -1.453281
2008-08-04 08:25:26 51°13.687 2°55.808 21.5949 2.263164 15.25426 -1.453281
2008-08-04 08:26:26 51°13.691 2°55.762 21.5968 2.263164 15.254816 -1.453281
2008-08-04 08:27:26 51°13.702 2°55.768 21.6014 2.263164 15.255372 -1.453281
2008-08-04 08:28:26 51°13.696 2°55.76 21.6005 2.263164 15.254816 -1.453281
2008-08-04 08:29:26 51°13.706 2°55.748 21.6071 2.263267 15.256967 -1.453281
2008-08-04 08:30:26 51°13.764 2°55.689 21.6038 2.263061 15.254611 -1.453281
2008-08-04 08:31:26 51°13.882 2°55.595 21.604 2.262957 15.253293 -1.453281
2008-08-04 08:32:26 51°14.02 2°55.493 21.6032 2.262957 15.253849 -1.453281
2008-08-04 08:33:26 51°14.153 2°55.395 21.6185 2.262957 15.254405 -1.488105
2008-08-04 08:34:26 51°14.253 2°55.301 21.6264 2.263164 15.257318 -1.453281
2008-08-04 08:35:26 51°14.329 2°55.166 21.6026 2.263061 15.256834 -1.453281
2008-08-04 08:36:26 51°14.414 2°54.962 21.5744 2.262854 15.250587 -1.453281
2008-08-04 08:37:26 51°14.552 2°54.795 21.5923 2.263061 15.270749 -1.453281
2008-08-04 08:38:26 51°14.72 2°54.705 21.5838 2.263681 15.265854 -1.453281
2008-08-04 08:39:26 51°14.887 2°54.61 21.5885 2.262234 15.257415 -1.453281
2008-08-04 08:40:26 51°15.05 2°54.51 21.5759 2.263578 15.301082 -1.453281
2008-08-04 08:41:25 51°15.199 2°54.408 21.5872 2.262958 15.285046 -1.453281
2008-08-04 08:42:25 51°15.352 2°54.312 21.577 2.262545 15.306881 -1.453281
2008-08-04 08:43:23 51°15.5 2°54.221 21.5981 2.262132 15.298505 -1.453281
2008-08-04 08:44:22 51°15.649 2°54.124 21.5967 2.261822 15.324533 -1.453281
2008-08-04 08:45:22 51°15.801 2°54.032 21.601 2.261099 15.31693 -1.453281
2008-08-04 08:46:22 51°15.959 2°54.003 21.6162 2.260169 15.319874 -1.453281
2008-08-04 08:47:22 51°16.112 2°54.054 21.6239 2.259653 15.325888 -1.488105
2008-08-04 08:48:22 51°16.26 2°54.028 21.6371 2.258206 15.308698 -1.488105
2008-08-04 08:49:22 51°16.379 2°53.852 21.6385 2.258929 15.306755 -1.488105
2008-08-04 08:50:22 51°16.501 2°53.662 21.637 2.258205 15.281502 -1.488105
2008-08-04 08:51:22 51°16.636 2°53.451 21.6499 2.257689 15.308522 -1.488105
2008-08-04 08:52:22 51°16.786 2°53.259 21.6587 2.257999 15.307729 -1.488105
2008-08-04 08:53:22 51°16.954 2°53.151 21.6662 2.256863 15.313078 -1.488105
2008-08-04 08:54:22 51°17.126 2°53.172 21.6704 2.256553 15.311623 -1.488105
2008-08-04 08:55:22 51°17.291 2°53.268 21.6828 2.25583 15.3147 -1.522929
2008-08-04 08:56:22 51°17.42 2°53.455 21.6917 2.25614 15.313904 -1.522929
2008-08-04 08:57:22 51°17.524 2°53.683 21.694 2.25552 15.302835 -1.522929
2008-08-04 08:58:22 51°17.636 2°53.903 21.7207 2.25645 15.310575 -1.522929
2008-08-04 08:59:22 51°17.751 2°54.086 21.722 2.25614 15.308557 -1.522929
2008-08-04 09:00:22 51°17.825 2°54.098 21.7423 2.255003 15.301815 -1.522929
2008-08-04 09:01:22 51°17.877 2°54.06 21.7496 2.255106 15.301175 -1.522929
2008-08-04 09:02:22 51°17.911 2°54.022 21.7622 2.255003 15.30519 -1.522929
2008-08-04 09:03:22 51°17.92 2°53.998 21.7553 2.255106 15.309333 -1.488105
2008-08-04 09:04:22 51°17.918 2°53.982 21.7737 2.254797 15.309285 -1.522929
2008-08-04 09:05:22 51°17.908 2°53.976 21.7873 2.25397 15.303713 -1.522929
2008-08-04 09:06:22 51°17.893 2°53.974 21.8001 2.254073 15.307576 -1.522929
2008-08-04 09:07:22 51°17.874 2°53.97 21.808 2.254177 15.310315 -1.522929
2008-08-04 09:08:22 51°17.855 2°53.969 21.8186 2.25397 15.308217 -1.522929
2008-08-04 09:09:22 51°17.835 2°53.967 21.8285 2.253867 15.307169 -1.522929
2008-08-04 09:10:22 51°17.815 2°53.965 21.831 2.253557 15.303741 -1.522929
2008-08-04 09:11:22 51°17.796 2°53.963 21.844 2.253453 15.302693 -1.522929
2008-08-04 09:12:22 51°17.795 2°53.958 21.86 2.253143 15.298704 -1.522929
2008-08-04 09:13:22 51°17.852 2°53.919 21.8742 2.253143 15.293641 -1.522929
2008-08-04 09:14:22 51°17.934 2°53.883 21.876 2.253143 15.293641 -1.522929
2008-08-04 09:15:22 51°18.02 2°53.85 21.8949 2.252833 15.296122 -1.522929
2008-08-04 09:16:22 51°18.106 2°53.814 21.8916 2.252937 15.296607 -1.522929
2008-08-04 09:17:22 51°18.193 2°53.778 21.9007 2.253143 15.296453 -1.488105
2008-08-04 09:18:22 51°18.28 2°53.742 19.5953 4.667136 33.690181 4.919521
2008-08-04 09:19:22 51°18.361 2°53.71 19.4895 4.729258 34.718849 4.292688
2008-08-04 09:20:22 51°18.397 2°53.676 19.4616 4.720845 34.71473 4.118568
2008-08-04 09:21:22 51°18.411 2°53.653 19.4469 4.715445 34.699264 4.536456
2008-08-04 09:22:22 51°18.417 2°53.636 19.4268 4.715964 34.725558 4.57128
2008-08-04 09:23:22 51°18.429 2°53.62 19.404 4.722612 34.793446 4.362336
2008-08-04 09:24:22 51°18.473 2°53.603 19.3955 4.720847 34.790541 4.466808
2008-08-04 09:25:22 51°18.531 2°53.586 19.3988 4.721055 34.798106 4.014096
2008-08-04 09:26:22 51°18.534 2°53.576 19.3951 4.720639 34.794021 3.665855
2008-08-04 09:27:25 51°18.512 2°53.573 19.3934 4.720951 34.799847 3.944447
2008-08-04 09:28:25 51°18.5 2°53.568 19.3917 4.720224 34.797084 4.188216
2008-08-04 09:29:24 51°18.501 2°53.56 19.3935 4.720743 34.800079 3.979271
2008-08-04 09:30:23 51°18.502 2°53.554 19.3932 4.722197 34.813403 3.979271
2008-08-04 09:31:22 51°18.504 2°53.55 19.3912 4.722821 34.817907 3.805151
2008-08-04 09:32:22 51°18.505 2°53.546 19.3891 4.723132 34.821784 3.909623
2008-08-04 09:33:22 51°18.509 2°53.541 19.3893 4.722924 34.818766 3.805151
2008-08-04 09:34:22 51°18.512 2°53.537 19.3924 4.722613 34.816189 3.909623
2008-08-04 09:35:22 51°18.513 2°53.536 19.3903 4.72334 34.823502 4.153392
2008-08-04 09:36:22 51°18.512 2°53.535 19.3963 4.723548 34.822619 3.944447
2008-08-04 09:37:22 51°18.511 2°53.535 19.3929 4.723652 34.822827 4.014096
2008-08-04 09:38:22 51°18.512 2°53.533 19.3941 4.72334 34.821551 4.04892
2008-08-04 09:39:22 51°18.513 2°53.533 19.3941 4.723548 34.822619 3.944447
2008-08-04 09:40:22 51°18.513 2°53.533 19.3961 4.723859 34.824545 4.22304
2008-08-04 09:41:22 51°18.512 2°53.532 19.3968 4.724171 34.825171 4.188216
2008-08-04 09:42:22 51°18.513 2°53.532 19.3928 4.724067 34.826263 4.153392
2008-08-04 09:43:22 51°18.513 2°53.532 19.397 4.724171 34.827122 4.188216
2008-08-04 09:44:22 51°18.513 2°53.531 19.395 4.724067 34.824962 4.04892
2008-08-04 09:45:22 51°18.513 2°53.531 19.394 4.724275 34.82603 4.014096
2008-08-04 09:46:22 51°18.513 2°53.53 19.3948 4.724275 34.827981 4.153392
2008-08-04 09:47:22 51°18.514 2°53.53 19.3976 4.724482 34.828398 4.153392
2008-08-04 09:48:22 51°18.516 2°53.529 19.3988 4.724586 34.827956 4.118568
2008-08-04 09:49:22 51°18.517 2°53.527 19.4038 4.724898 34.828581 4.188216
2008-08-04 09:50:22 51°18.517 2°53.527 19.4025 4.725106 34.828348 4.153392
2008-08-04 09:51:22 51°18.518 2°53.527 19.4059 4.725002 34.827489 4.39716
2008-08-04 09:52:22 51°18.518 2°53.526 19.411 4.725313 34.826164 4.362336
2008-08-04 09:53:22 51°18.517 2°53.526 19.4153 4.725521 34.823331 4.536456
2008-08-04 09:54:22 51°18.519 2°53.526 19.4169 4.725625 34.822889 4.536456
2008-08-04 09:55:22 51°18.521 2°53.525 19.4246 4.725832 34.820707 4.640929
2008-08-04 09:56:22 51°18.52 2°53.525 19.4277 4.726144 34.818084 4.501632
2008-08-04 09:57:22 51°18.521 2°53.525 19.4307 4.725521 34.809037 4.606104
2008-08-04 09:58:22 51°18.519 2°53.525 19.4376 4.726352 34.813954 4.431984
2008-08-04 09:59:22 51°18.518 2°53.525 19.4396 4.726559 34.812423 4.431984
2008-08-04 10:00:22 51°18.519 2°53.526 19.4489 4.726663 34.808087 4.22304
2008-08-04 10:01:22 51°18.518 2°53.525 19.454 4.726975 34.805468 4.257864
2008-08-04 10:02:22 51°18.519 2°53.526 19.4561 4.727182 34.80329 4.431984
2008-08-04 10:03:22 51°18.519 2°53.525 19.4617 4.727286 34.800904 4.431984
2008-08-04 10:04:22 51°18.518 2°53.525 19.471 4.72739 34.796572 4.640929
2008-08-04 10:05:22 51°18.52 2°53.525 19.4731 4.727494 34.79289 4.780225
2008-08-04 10:06:22 51°18.521 2°53.524 19.4775 4.727286 34.785989 4.606104
2008-08-04 10:07:22 51°18.522 2°53.524 19.4819 4.727182 34.782539 4.710577
2008-08-04 10:08:22 51°18.522 2°53.524 19.4874 4.727078 34.778442 4.710577
2008-08-04 10:09:22 51°18.521 2°53.524 19.4931 4.727182 34.772822 4.606104
2008-08-04 10:10:22 51°18.52 2°53.524 19.5 4.727286 34.769146 4.57128
2008-08-04 10:11:22 51°18.52 2°53.525 19.5066 4.727182 34.76311 4.536456
2008-08-04 10:12:22 51°18.521 2°53.525 19.514 4.727078 34.757076 4.327512
2008-08-04 10:13:22 51°18.522 2°53.524 19.5202 4.727181 34.752111 4.257864
2008-08-04 10:14:23 51°18.523 2°53.525 19.5287 4.727285 34.746501 4.257864
2008-08-04 10:15:22 51°18.524 2°53.525 19.5312 4.727597 34.743898 4.153392
2008-08-04 10:16:23 51°18.522 2°53.524 19.5408 4.727597 34.741313 4.257864
2008-08-04 10:17:22 51°18.52 2°53.525 19.5465 4.727596 34.732914 4.188216
2008-08-04 10:18:22 51°18.52 2°53.525 19.554 4.727804 34.730105 4.153392
2008-08-04 10:19:22 51°18.521 2°53.525 19.5594 4.728012 34.72536 4.014096
2008-08-04 10:20:22 51°18.521 2°53.525 19.565 4.728219 34.723199 4.153392
2008-08-04 10:21:22 51°18.519 2°53.525 19.5727 4.728323 34.718892 4.188216
2008-08-04 10:22:22 51°18.519 2°53.525 19.574 4.728427 34.715232 4.153392
2008-08-04 10:23:22 51°18.521 2°53.525 19.5783 4.728531 34.714152 4.118568
2008-08-04 10:24:22 51°18.522 2°53.524 19.5788 4.728427 34.710717 4.188216
2008-08-04 10:25:23 51°18.522 2°53.523 19.5862 4.728427 34.707493 4.153392
2008-08-04 10:26:22 51°18.523 2°53.522 19.593 4.728634 34.703402 4.014096
2008-08-04 10:27:23 51°18.523 2°53.522 19.5952 4.728738 34.70039 4.083744
2008-08-04 10:28:22 51°18.522 2°53.522 19.6 4.728842 34.698668 4.083744
2008-08-04 10:29:22 51°18.52 2°53.523 19.603 4.728946 34.695658 4.083744
2008-08-04 10:30:22 51°18.521 2°53.525 19.6073 4.72905 34.693936 4.153392
2008-08-04 10:31:22 51°18.522 2°53.526 19.6081 4.728946 34.689862 4.083744
2008-08-04 10:32:22 51°18.522 2°53.526 19.6116 4.728946 34.688574 4.04892
2008-08-04 10:33:22 51°18.522 2°53.526 19.6152 4.728946 34.686643 4.118568
2008-08-04 10:34:22 51°18.522 2°53.526 19.6209 4.72905 34.682991 4.014096
2008-08-04 10:35:22 51°18.52 2°53.526 19.6245 4.729257 34.680839 4.118568
2008-08-04 10:36:22 51°18.52 2°53.526 19.6283 4.729465 34.679331 4.118568
2008-08-04 10:37:22 51°18.521 2°53.526 19.6338 4.729465 34.675471 4.188216
2008-08-04 10:38:22 51°18.522 2°53.526 19.6321 4.729465 34.674185 4.188216
2008-08-04 10:39:22 51°18.521 2°53.526 19.6382 4.729361 34.671401 4.153392
2008-08-04 10:40:22 51°18.519 2°53.526 19.6434 4.729672 34.66882 4.083744
2008-08-04 10:41:22 51°18.518 2°53.526 19.6508 4.729984 34.667525 4.153392
2008-08-04 10:42:22 51°18.519 2°53.526 19.6518 4.730088 34.66388 4.04892
2008-08-04 10:43:22 51°18.52 2°53.526 19.6573 4.730088 34.662594 4.188216
2008-08-04 10:44:22 51°18.519 2°53.525 19.6608 4.730295 34.65852 4.014096
2008-08-04 10:45:22 51°18.519 2°53.525 19.6682 4.730295 34.655951 4.083744
2008-08-04 10:46:22 51°18.52 2°53.525 19.675 4.730607 34.652732 4.014096
2008-08-04 10:47:22 51°18.522 2°53.524 19.6766 4.730814 34.649303 4.04892
2008-08-04 10:48:22 51°18.524 2°53.524 19.6869 4.730711 34.646524 4.014096
2008-08-04 10:49:22 51°18.523 2°53.525 19.6921 4.73123 34.641165 3.944447
2008-08-04 10:50:22 51°18.521 2°53.524 19.6985 4.731437 34.639023 3.979271
2008-08-04 10:51:22 51°18.518 2°53.525 19.7031 4.731749 34.636451 3.979271
2008-08-04 10:52:22 51°18.519 2°53.525 19.7085 4.731749 34.634528 3.944447
2008-08-04 10:53:22 51°18.519 2°53.526 19.7099 4.731749 34.630682 3.979271
2008-08-04 10:54:22 51°18.52 2°53.526 19.7153 4.731853 34.62833 3.979271
2008-08-04 10:55:23 51°18.52 2°53.526 19.7194 4.731956 34.624698 3.979271
2008-08-04 10:56:22 51°18.522 2°53.526 19.7265 4.732164 34.622559 3.874799
2008-08-04 10:57:23 51°18.522 2°53.526 19.7299 4.732372 34.6185 3.874799
2008-08-04 10:58:22 51°18.522 2°53.526 19.7338 4.732268 34.615727 3.909623
2008-08-04 10:59:22 51°18.521 2°53.526 19.7417 4.732476 34.61295 3.839975
2008-08-04 11:00:22 51°18.522 2°53.526 19.7434 4.732475 34.60847 3.735503
2008-08-04 11:01:22 51°18.52 2°53.526 19.7456 4.732683 34.608254 3.805151
2008-08-04 11:02:23 51°18.519 2°53.527 19.7518 4.732683 34.605695 3.805151
2008-08-04 11:03:22 51°18.519 2°53.526 19.756 4.732891 34.601642 3.805151
2008-08-04 11:04:23 51°18.52 2°53.526 19.7601 4.732995 34.600575 3.735503
2008-08-04 11:05:22 51°18.522 2°53.526 19.7625 4.732995 34.598018 3.770327
2008-08-04 11:06:23 51°18.522 2°53.526 19.7653 4.733098 34.594394 3.770327
2008-08-04 11:07:22 51°18.521 2°53.526 19.7703 4.732994 34.592903 3.735503
2008-08-04 11:08:23 51°18.521 2°53.526 19.7739 4.733098 34.589281 3.631031
2008-08-04 11:09:22 51°18.521 2°53.526 19.7759 4.733098 34.586726 3.631031
2008-08-04 11:10:23 51°18.522 2°53.526 19.7784 4.732994 34.585235 3.665855
2008-08-04 11:11:22 51°18.522 2°53.526 19.7805 4.73289 34.58119 3.665855
2008-08-04 11:12:23 51°18.52 2°53.526 19.7861 4.732994 34.580126 3.700679
2008-08-04 11:13:22 51°18.521 2°53.527 19.7939 4.733098 34.577145 3.631031
2008-08-04 11:14:22 51°18.522 2°53.526 19.7993 4.733513 34.573527 3.526559
2008-08-04 11:15:23 51°18.524 2°53.526 19.8026 4.733409 34.569485 3.596207
2008-08-04 11:16:22 51°18.522 2°53.527 19.8056 4.733513 34.566508 3.665855
2008-08-04 11:17:23 51°18.521 2°53.526 19.8114 4.733305 34.562893 3.631031
2008-08-04 11:18:22 51°18.52 2°53.526 19.8154 4.733513 34.559492 3.561383
2008-08-04 11:19:23 51°18.519 2°53.528 19.8209 4.733513 34.556304 3.491735
2008-08-04 11:20:22 51°18.519 2°53.528 19.8286 4.733825 34.55248 3.422087
2008-08-04 11:21:22 51°18.519 2°53.527 19.834 4.733928 34.54887 3.456911
2008-08-04 11:22:22 51°18.52 2°53.528 19.8353 4.734032 34.546534 3.352439
2008-08-04 11:23:22 51°18.521 2°53.527 19.8357 4.733824 34.54356 3.422087
2008-08-04 11:24:22 51°18.521 2°53.528 19.8389 4.73372 34.541436 3.422087
2008-08-04 11:25:22 51°18.522 2°53.527 19.842 4.733617 34.538039 3.456911
2008-08-04 11:26:22 51°18.52 2°53.528 19.8451 4.733513 34.533368 3.387263
2008-08-04 11:27:22 51°18.518 2°53.528 19.8482 4.733409 34.531882 3.456911
2008-08-04 11:28:22 51°18.516 2°53.529 19.8562 4.733409 34.528063 3.422087
2008-08-04 11:29:22 51°18.516 2°53.529 19.8661 4.73372 34.523613 3.28279
2008-08-04 11:30:22 51°18.518 2°53.529 19.8714 4.734239 34.520228 3.247966
2008-08-04 11:31:22 51°18.517 2°53.53 19.8676 4.734032 34.516621 3.352439
2008-08-04 11:32:22 51°18.517 2°53.53 19.8745 4.733512 34.511738 3.352439
2008-08-04 11:33:22 51°18.517 2°53.53 19.8799 4.733824 34.510472 3.28279
2008-08-04 11:34:22 51°18.517 2°53.531 19.8861 4.734031 34.507722 3.317614
2008-08-04 11:35:22 51°18.516 2°53.533 19.8941 4.734343 34.504551 3.247966
2008-08-04 11:36:23 51°18.514 2°53.534 19.8956 4.734551 34.499897 3.10867
2008-08-04 11:37:22 51°18.513 2°53.536 19.9021 4.734239 34.49735 3.073846
2008-08-04 11:38:23 51°18.513 2°53.535 19.9246 4.733408 34.481039 2.969374
2008-08-04 11:39:22 51°18.513 2°53.537 19.9439 4.732888 34.458409 2.969374
2008-08-04 11:40:23 51°18.512 2°53.537 19.9748 4.730706 34.425407 3.004198
2008-08-04 11:41:22 51°18.513 2°53.538 20.0135 4.724681 34.352259 3.073846
2008-08-04 11:42:22 51°18.514 2°53.537 20.0427 4.717514 34.262381 3.10867
2008-08-04 11:43:23 51°18.513 2°53.538 20.0677 4.710969 34.182772 3.213142
2008-08-04 11:44:22 51°18.511 2°53.541 20.08 4.70858 34.148949 3.317614
2008-08-04 11:45:23 51°18.509 2°53.545 20.0872 4.704529 34.106647 3.28279
2008-08-04 11:46:22 51°18.508 2°53.547 20.0922 4.700478 34.067492 3.247966
2008-08-04 11:47:23 51°18.507 2°53.549 20.1025 4.697985 34.042257 3.247966
2008-08-04 11:48:22 51°18.508 2°53.55 20.1083 4.696531 34.02422 3.247966
2008-08-04 11:49:23 51°18.509 2°53.55 20.1222 4.690299 33.966165 3.28279
2008-08-04 11:50:22 51°18.509 2°53.551 20.1268 4.682509 33.894269 3.422087
2008-08-04 11:51:23 51°18.507 2°53.557 20.127 4.672227 33.806547 3.387263
2008-08-04 11:52:23 51°18.505 2°53.563 20.1299 4.660387 33.71057 3.317614
2008-08-04 11:53:23 51°18.507 2°53.567 20.1319 4.645951 33.592991 3.247966
2008-08-04 11:54:23 51°18.508 2°53.57 20.1374 4.637954 33.524551 3.178318
2008-08-04 11:55:22 51°18.509 2°53.573 20.1354 4.633384 33.483886 3.143494
2008-08-04 11:56:23 51°18.508 2°53.577 20.1304 4.629749 33.456911 3.10867
2008-08-04 11:57:22 51°18.509 2°53.58 20.1241 4.626842 33.436431 3.10867
2008-08-04 11:58:23 51°18.51 2°53.583 20.1193 4.624869 33.425348 3.073846
2008-08-04 11:59:23 51°18.511 2°53.584 20.1157 4.622999 33.414492 2.969374
2008-08-04 12:00:23 51°18.513 2°53.586 20.1147 4.621961 33.407918 3.004198
2008-08-04 12:01:23 51°18.514 2°53.586 20.1147 4.620299 33.394467 3.073846
2008-08-04 12:02:23 51°18.515 2°53.59 20.1159 4.61843 33.379337 3.10867
2008-08-04 12:03:23 51°18.515 2°53.593 20.1164 4.616353 33.362527 3.143494
2008-08-04 12:04:23 51°18.517 2°53.596 20.1192 4.613757 33.340297 3.143494
2008-08-04 12:05:23 51°18.519 2°53.601 20.123 4.610122 33.308451 3.143494
2008-08-04 12:06:23 51°18.52 2°53.606 20.1244 4.605968 33.271806 3.10867
2008-08-04 12:07:23 51°18.52 2°53.614 20.1302 4.600984 33.230277 3.073846
2008-08-04 12:08:23 51°18.519 2°53.619 20.1344 4.595272 33.180458 3.143494
2008-08-04 12:09:23 51°18.522 2°53.622 20.1355 4.592884 33.157516 3.178318
2008-08-04 12:10:23 51°18.525 2°53.629 20.142 4.589976 33.132806 3.247966
2008-08-04 12:11:23 51°18.526 2°53.634 20.1452 4.58468 33.085782 3.247966
2008-08-04 12:12:23 51°18.53 2°53.635 20.1509 4.580942 33.051962 3.317614
2008-08-04 12:13:22 51°18.534 2°53.636 20.1528 4.579592 33.038647 3.387263
2008-08-04 12:14:23 51°18.537 2°53.637 20.156 4.578346 33.025569 3.352439
2008-08-04 12:15:22 51°18.541 2°53.64 20.156 4.576996 33.014067 3.422087
2008-08-04 12:16:22 51°18.544 2°53.639 20.1564 4.573777 32.986272 3.631031
2008-08-04 12:17:23 51°18.548 2°53.638 20.1563 4.572531 32.975009 3.770327
2008-08-04 12:18:22 51°18.549 2°53.641 20.1528 4.572738 32.97789 3.770327
2008-08-04 12:19:23 51°18.548 2°53.642 20.149 4.574296 32.991668 3.770327
2008-08-04 12:20:22 51°18.548 2°53.642 20.1472 4.574296 32.996486 3.839975
2008-08-04 12:21:23 51°18.548 2°53.642 20.1465 4.574192 32.99625 3.839975
2008-08-04 12:22:22 51°18.55 2°53.641 20.145 4.574192 32.99625 3.909623
2008-08-04 12:23:22 51°18.552 2°53.639 20.1459 4.573881 32.994337 3.909623
2008-08-04 12:24:23 51°18.553 2°53.64 20.1446 4.573777 32.994704 3.944447
2008-08-04 12:25:22 51°18.552 2°53.641 20.1427 4.573673 32.993865 3.944447
2008-08-04 12:26:23 51°18.551 2°53.64 20.1429 4.573362 32.992555 3.909623
2008-08-04 12:27:22 51°18.549 2°53.642 20.1393 4.573569 32.993629 3.944447
2008-08-04 12:28:23 51°18.545 2°53.643 20.1325 4.574296 33.001909 3.874799
2008-08-04 12:29:22 51°18.541 2°53.643 20.1235 4.576269 33.024476 3.944447
2008-08-04 12:30:23 51°18.541 2°53.643 20.126 4.577308 33.037088 3.944447
2008-08-04 12:31:22 51°18.543 2°53.643 20.118 4.577827 33.043094 3.979271
2008-08-04 12:32:23 51°18.548 2°53.641 20.0855 4.580423 33.070112 3.909623
2008-08-04 12:33:23 51°18.552 2°53.641 20.0637 4.591431 33.185172 3.874799
2008-08-04 12:34:23 51°18.553 2°53.643 20.0697 4.595688 33.229352 3.909623
2008-08-04 12:35:23 51°18.552 2°53.641 20.0838 4.597246 33.241355 3.874799
2008-08-04 12:36:23 51°18.55 2°53.643 20.0982 4.591327 33.177655 3.874799
2008-08-04 12:37:23 51°18.549 2°53.643 20.0876 4.589042 33.154323 3.874799
2008-08-04 12:38:23 51°18.549 2°53.642 20.0909 4.589873 33.168927 3.944447
2008-08-04 12:39:23 51°18.548 2°53.644 20.0837 4.58925 33.16146 3.909623
2008-08-04 12:40:22 51°18.549 2°53.644 20.072 4.591431 33.185172 3.839975
2008-08-04 12:41:23 51°18.551 2°53.641 20.0337 4.597454 33.246078 3.839975
2008-08-04 12:42:23 51°18.552 2°53.641 20.0345 4.606385 33.339758 3.979271
2008-08-04 12:43:23 51°18.554 2°53.643 20.0541 4.602646 33.305801 4.04892
2008-08-04 12:44:23 51°18.552 2°53.645 20.0688 4.598596 33.261414 4.083744
2008-08-04 12:45:23 51°18.548 2°53.643 20.0659 4.596415 33.237062 4.083744
2008-08-04 12:46:23 51°18.547 2°53.645 20.0703 4.595377 33.225614 4.118568
2008-08-04 12:47:23 51°18.552 2°53.643 20.0669 4.596 33.231874 4.04892
2008-08-04 12:48:23 51°18.556 2°53.639 20.0887 4.596831 33.239208 4.04892
2008-08-04 12:49:23 51°18.554 2°53.642 20.1114 4.591223 33.171356 4.22304
2008-08-04 12:50:23 51°18.548 2°53.645 20.1218 4.588003 33.130781 4.22304
2008-08-04 12:51:23 51°18.544 2°53.644 20.132 4.587692 33.12342 4.118568
2008-08-04 12:52:23 51°18.547 2°53.644 20.1421 4.585511 33.096724 4.188216
2008-08-04 12:53:23 51°18.551 2°53.642 20.1485 4.584057 33.075313 4.118568
2008-08-04 12:54:23 51°18.553 2°53.641 20.1606 4.584265 33.073367 4.014096
2008-08-04 12:55:23 51°18.555 2°53.642 20.1609 4.58333 33.057974 4.014096
2008-08-04 12:56:23 51°18.554 2°53.642 20.1614 4.583849 33.061563 3.909623
2008-08-04 12:57:23 51°18.551 2°53.644 20.1602 4.584368 33.066359 3.909623
2008-08-04 12:58:23 51°18.547 2°53.644 20.1618 4.584991 33.072597 3.874799
2008-08-04 12:59:23 51°18.551 2°53.643 20.1655 4.585199 33.071859 3.874799
2008-08-04 13:00:23 51°18.554 2°53.64 20.1699 4.585718 33.073034 3.874799
2008-08-04 13:01:23 51°18.551 2°53.643 20.1763 4.586964 33.07887 3.700679
2008-08-04 13:02:23 51°18.549 2°53.643 20.1777 4.588002 33.084235 3.631031
2008-08-04 13:03:23 51°18.549 2°53.642 20.1806 4.589041 33.091411 3.700679
2008-08-04 13:04:23 51°18.551 2°53.641 20.188 4.591637 33.108141 3.700679
2008-08-04 13:05:23 51°18.552 2°53.643 20.1876 4.593921 33.122355 3.770327
2008-08-04 13:06:23 51°18.549 2°53.643 20.1894 4.595687 33.137209 3.805151
2008-08-04 13:07:23 51°18.549 2°53.643 20.1924 4.59849 33.15803 3.770327
2008-08-04 13:08:22 51°18.552 2°53.643 20.1966 4.599529 33.1646 3.805151
2008-08-04 13:09:23 51°18.553 2°53.642 20.1938 4.604409 33.201583 3.839975
2008-08-04 13:10:22 51°18.554 2°53.642 20.1961 4.609186 33.241367 3.805151
2008-08-04 13:11:23 51°18.555 2°53.64 20.1987 4.615521 33.289493 3.874799
2008-08-04 13:12:23 51°18.557 2°53.639 20.2007 4.618429 33.312979 3.979271
2008-08-04 13:13:23 51°18.558 2°53.64 20.208 4.626633 33.373781 4.014096
2008-08-04 13:14:23 51°18.556 2°53.64 20.2129 4.63411 33.429929 4.118568
2008-08-04 13:15:23 51°18.557 2°53.64 20.2183 4.638576 33.462964 4.153392
2008-08-04 13:16:23 51°18.556 2°53.642 20.2231 4.643145 33.494396 4.22304
2008-08-04 13:17:23 51°18.551 2°53.644 20.2314 4.64678 33.520715 4.257864
2008-08-04 13:18:23 51°18.55 2°53.643 20.2364 4.652596 33.56099 4.22304
2008-08-04 13:19:23 51°18.55 2°53.644 20.2428 4.657061 33.592796 4.292688
2008-08-04 13:20:23 51°18.552 2°53.642 20.2468 4.664747 33.650621 4.362336
2008-08-04 13:21:23 51°18.555 2°53.64 20.2467 4.666824 33.664957 4.466808
2008-08-04 13:22:23 51°18.555 2°53.641 20.2494 4.670563 33.695179 4.536456
2008-08-04 13:23:23 51°18.553 2°53.642 20.2518 4.670251 33.690206 4.640929
2008-08-04 13:24:23 51°18.553 2°53.642 20.2531 4.668693 33.675774 4.536456
2008-08-04 13:25:23 51°18.556 2°53.64 20.2513 4.667343 33.664863 4.57128
2008-08-04 13:26:23 51°18.557 2°53.64 20.2442 4.666097 33.656629 4.39716
2008-08-04 13:27:23 51°18.554 2°53.641 20.2298 4.664747 33.656138 4.362336
2008-08-04 13:28:23 51°18.553 2°53.642 20.2228 4.662566 33.644638 4.257864
2008-08-04 13:29:23 51°18.554 2°53.642 20.2138 4.66132 33.638853 4.188216
2008-08-04 13:30:23 51°18.556 2°53.64 20.2012 4.660385 33.641106 4.083744
2008-08-04 13:31:23 51°18.555 2°53.642 20.188 4.659658 33.644427 4.014096
2008-08-04 13:32:23 51°18.553 2°53.643 20.1823 4.658101 33.64287 3.909623
2008-08-04 13:33:23 51°18.553 2°53.642 20.1823 4.6554 33.622248 3.839975
2008-08-04 13:34:23 51°18.556 2°53.641 20.1832 4.652077 33.596585 3.839975
2008-08-04 13:35:23 51°18.558 2°53.64 20.1837 4.648234 33.564274 3.839975
2008-08-04 13:36:23 51°18.558 2°53.64 20.1865 4.643561 33.526473 3.874799
2008-08-04 13:37:23 51°18.556 2°53.641 20.1916 4.637849 33.476618 3.805151
2008-08-04 13:38:23 51°18.557 2°53.641 20.1966 4.632552 33.428312 3.805151
2008-08-04 13:39:23 51°18.559 2°53.639 20.1851 4.628087 33.394051 3.805151
2008-08-04 13:40:23 51°18.559 2°53.64 20.1776 4.625387 33.379537 3.805151
2008-08-04 13:41:23 51°18.556 2°53.642 20.1772 4.621129 33.350603 3.805151
2008-08-04 13:42:23 51°18.549 2°53.644 20.1821 4.614379 33.292409 3.805151
2008-08-04 13:43:23 51°18.546 2°53.642 20.182 4.61064 33.260993 3.735503
2008-08-04 13:44:23 51°18.55 2°53.635 20.2444 4.602229 33.193056 3.979271
2008-08-04 13:45:23 51°18.545 2°53.609 20.231 4.593297 33.071496 3.979271
2008-08-04 13:46:23 51°18.543 2°53.594 20.1881 4.590286 33.064079 3.944447
2008-08-04 13:47:23 51°18.549 2°53.575 20.185 4.586237 33.04768 3.874799
2008-08-04 13:48:23 51°18.526 2°53.57 20.2625 4.585302 33.049781 3.491735
2008-08-04 13:49:23 51°18.506 2°53.73 20.2156 4.583744 33.003518 3.665855
2008-08-04 13:50:23 51°18.516 2°53.884 20.208 4.585094 33.029436 3.631031
2008-08-04 13:51:23 51°18.525 2°54.021 20.229 4.590702 33.075865 3.526559
2008-08-04 13:52:23 51°18.533 2°54.144 20.2241 4.593921 33.101831 3.491735
2008-08-04 13:53:23 51°18.54 2°54.259 20.2321 4.594025 33.088801 3.352439
2008-08-04 13:54:23 51°18.542 2°54.365 20.23 4.599113 33.126818 3.352439
2008-08-04 13:55:23 51°18.547 2°54.495 20.1784 4.609705 33.221329 3.456911
2008-08-04 13:56:23 51°18.557 2°54.63 20.2157 4.62331 33.349368 3.665855
2008-08-04 13:57:23 51°18.571 2°54.767 20.2013 4.627152 33.374934 3.665855
2008-08-04 13:58:23 51°18.582 2°54.905 20.2096 4.637018 33.463797 3.700679
2008-08-04 13:59:23 51°18.597 2°55.041 20.1602 4.640861 33.490584 3.596207
2008-08-04 14:00:23 51°18.613 2°55.178 20.1143 4.657374 33.671392 3.770327
2008-08-04 14:01:23 51°18.63 2°55.314 20.0804 4.668592 33.790046 3.770327
2008-08-04 14:02:23 51°18.643 2°55.45 20.0624 4.678459 33.894258 3.735503
2008-08-04 14:03:23 51°18.656 2°55.59 20.0503 4.684379 33.953516 3.735503
2008-08-04 14:04:23 51°18.666 2°55.725 20.0242 4.688015 33.983672 3.631031
2008-08-04 14:05:23 51°18.675 2°55.857 20.0024 4.70079 34.113736 3.665855
2008-08-04 14:06:23 51°18.685 2°55.982 19.9297 4.713359 34.247396 3.874799
2008-08-04 14:07:23 51°18.697 2°56.105 19.8818 4.725098 34.39481 4.188216
2008-08-04 14:08:23 51°18.709 2°56.229 19.8498 4.731435 34.484589 4.362336
2008-08-04 14:09:23 51°18.712 2°56.355 19.8309 4.735694 34.543575 4.466808
2008-08-04 14:10:23 51°18.681 2°56.424 19.8234 4.73746 34.565667 4.954345
2008-08-04 14:11:23 51°18.656 2°56.382 19.8047 4.738603 34.589685 5.302586
2008-08-04 14:12:23 51°18.645 2°56.18 19.7916 4.740161 34.614573 5.267761
2008-08-04 14:13:23 51°18.544 2°55.987 19.7884 4.741616 34.634154 5.128465
2008-08-04 14:14:23 51°18.467 2°55.767 19.7751 4.742654 34.6497 5.51153
2008-08-04 14:15:23 51°18.456 2°55.506 19.7927 4.742447 34.653116 5.616002
2008-08-04 14:16:23 51°18.38 2°55.302 19.8012 4.739226 34.616498 5.441882
2008-08-04 14:17:24 51°18.256 2°55.139 19.8202 4.735902 34.579055 5.232937
2008-08-04 14:18:24 51°18.138 2°54.968 19.8267 4.733824 34.542923 5.093641
2008-08-04 14:19:24 51°18.021 2°54.794 19.8192 4.736941 34.572252 5.33741
2008-08-04 14:20:24 51°17.904 2°54.618 19.8265 4.736629 34.570977 5.372234
2008-08-04 14:21:23 51°17.796 2°54.435 19.8185 4.737356 34.573741 5.267761
2008-08-04 14:22:24 51°17.683 2°54.241 19.7776 4.740784 34.606268 5.128465
2008-08-04 14:23:24 51°17.571 2°54.048 19.725 4.749718 34.725547 5.232937
2008-08-04 14:24:24 51°17.459 2°53.855 19.7185 4.752316 34.778335 5.093641
2008-08-04 14:25:24 51°17.347 2°53.664 19.7172 4.752524 34.78197 4.884697
2008-08-04 14:26:23 51°17.236 2°53.477 19.7204 4.752524 34.783901 4.710577
2008-08-04 14:27:24 51°17.1 2°53.328 19.6975 4.752108 34.784993 4.466808
2008-08-04 14:28:24 51°16.929 2°53.303 19.6518 4.750239 34.789594 4.431984
2008-08-04 14:29:24 51°16.752 2°53.362 19.6484 4.747123 34.795561 4.640929
2008-08-04 14:30:24 51°16.573 2°53.453 20.7999 4.688631 33.661765 3.596207
2008-08-04 14:31:24 51°16.4 2°53.59 19.6479 4.210164 29.571923 6.6259
2008-08-04 14:32:23 51°16.231 2°53.726 19.5836 4.750863 34.811473 5.650826
2008-08-04 14:33:24 51°16.053 2°53.862 19.6055 4.743488 34.804377 5.929418
2008-08-04 14:34:24 51°15.878 2°53.99 19.6711 4.728945 34.667985 6.486603
2008-08-04 14:35:24 51°15.701 2°54.111 19.7737 4.752628 34.793765 7.252733
2008-08-04 14:36:24 51°15.525 2°54.23 19.8487 4.689369 34.206519 7.008964
2008-08-04 14:37:24 51°15.348 2°54.348 19.9009 4.746289 34.613685 6.138363
2008-08-04 14:38:24 51°15.173 2°54.464 19.9326 4.752001 34.623436 5.372234
2008-08-04 14:39:24 51°15.003 2°54.583 19.9335 4.763947 34.69556 4.919521
2008-08-04 14:40:24 51°14.853 2°54.697 19.9758 4.765505 34.710205 5.058817
2008-08-04 14:41:24 51°14.68 2°54.82 20.0229 4.765401 34.667937 5.232937
2008-08-04 14:42:23 51°14.512 2°54.958 20.0775 4.756051 34.555501 5.790122
2008-08-04 14:43:24 51°14.348 2°55.142 20.0728 4.749714 34.471642 6.033891
2008-08-04 14:44:23 51°14.213 2°55.327 20.3839 4.708475 34.093793 6.834844
2008-08-04 14:45:24 51°14.096 2°55.43 20.4712 4.581665 32.848663 6.730372